sensor_id;sensor_type;location;lat;lon;timestamp;P1;durP1;ratioP1;P2;durP2;ratioP2
22849;SDS011;11591;44.792;10.358;2022-12-18T00:01:11;60.85;;;28.58;;
22849;SDS011;11591;44.792;10.358;2022-12-18T00:03:42;58.95;;;29.67;;
22849;SDS011;11591;44.792;10.358;2022-12-18T00:06:09;60.58;;;29.55;;
22849;SDS011;11591;44.792;10.358;2022-12-18T00:08:35;61.08;;;29.42;;
22849;SDS011;11591;44.792;10.358;2022-12-18T00:11:04;62.17;;;29.80;;
22849;SDS011;11591;44.792;10.358;2022-12-18T00:13:31;57.40;;;29.10;;
22849;SDS011;11591;44.792;10.358;2022-12-18T00:16:01;61.30;;;29.15;;
22849;SDS011;11591;44.792;10.358;2022-12-18T00:18:28;53.35;;;27.33;;
22849;SDS011;11591;44.792;10.358;2022-12-18T00:20:53;62.58;;;28.77;;
22849;SDS011;11591;44.792;10.358;2022-12-18T00:23:23;58.92;;;28.30;;
22849;SDS011;11591;44.792;10.358;2022-12-18T00:25:48;59.35;;;29.02;;
22849;SDS011;11591;44.792;10.358;2022-12-18T00:28:14;58.20;;;28.67;;
22849;SDS011;11591;44.792;10.358;2022-12-18T00:30:40;60.22;;;27.75;;
22849;SDS011;11591;44.792;10.358;2022-12-18T00:33:06;55.58;;;26.95;;
22849;SDS011;11591;44.792;10.358;2022-12-18T00:35:32;53.75;;;27.15;;
22849;SDS011;11591;44.792;10.358;2022-12-18T00:37:58;61.78;;;27.35;;
22849;SDS011;11591;44.792;10.358;2022-12-18T00:40:24;60.28;;;27.42;;
22849;SDS011;11591;44.792;10.358;2022-12-18T00:42:49;59.20;;;27.77;;
22849;SDS011;11591;44.792;10.358;2022-12-18T00:45:29;56.75;;;27.88;;
22849;SDS011;11591;44.792;10.358;2022-12-18T00:47:55;53.78;;;27.17;;
22849;SDS011;11591;44.792;10.358;2022-12-18T00:50:22;55.60;;;26.48;;
22849;SDS011;11591;44.792;10.358;2022-12-18T00:52:49;52.83;;;25.98;;
22849;SDS011;11591;44.792;10.358;2022-12-18T00:55:15;52.30;;;26.23;;
22849;SDS011;11591;44.792;10.358;2022-12-18T00:57:41;55.53;;;26.85;;
22849;SDS011;11591;44.792;10.358;2022-12-18T01:00:08;52.72;;;26.77;;
22849;SDS011;11591;44.792;10.358;2022-12-18T01:02:36;60.53;;;27.38;;
22849;SDS011;11591;44.792;10.358;2022-12-18T01:05:02;52.90;;;26.27;;
22849;SDS011;11591;44.792;10.358;2022-12-18T01:07:28;52.78;;;27.77;;
22849;SDS011;11591;44.792;10.358;2022-12-18T01:09:54;51.40;;;26.27;;
22849;SDS011;11591;44.792;10.358;2022-12-18T01:12:20;54.90;;;27.52;;
22849;SDS011;11591;44.792;10.358;2022-12-18T01:14:49;53.75;;;26.55;;
22849;SDS011;11591;44.792;10.358;2022-12-18T01:17:15;54.55;;;26.92;;
22849;SDS011;11591;44.792;10.358;2022-12-18T01:19:40;57.97;;;27.38;;
22849;SDS011;11591;44.792;10.358;2022-12-18T01:22:07;60.13;;;28.55;;
22849;SDS011;11591;44.792;10.358;2022-12-18T01:24:32;57.60;;;26.60;;
22849;SDS011;11591;44.792;10.358;2022-12-18T01:26:58;63.20;;;27.10;;
22849;SDS011;11591;44.792;10.358;2022-12-18T01:29:24;55.83;;;27.50;;
22849;SDS011;11591;44.792;10.358;2022-12-18T01:31:50;59.50;;;27.60;;
22849;SDS011;11591;44.792;10.358;2022-12-18T01:34:16;56.80;;;27.33;;
22849;SDS011;11591;44.792;10.358;2022-12-18T01:36:42;52.53;;;26.15;;
22849;SDS011;11591;44.792;10.358;2022-12-18T01:39:10;59.22;;;27.35;;
22849;SDS011;11591;44.792;10.358;2022-12-18T01:41:41;53.40;;;27.00;;
22849;SDS011;11591;44.792;10.358;2022-12-18T01:50:14;51.58;;;25.42;;
22849;SDS011;11591;44.792;10.358;2022-12-18T01:53:00;51.60;;;25.60;;
22849;SDS011;11591;44.792;10.358;2022-12-18T01:55:39;51.28;;;25.52;;
22849;SDS011;11591;44.792;10.358;2022-12-18T01:58:11;54.00;;;25.25;;
22849;SDS011;11591;44.792;10.358;2022-12-18T02:00:37;46.75;;;24.50;;
22849;SDS011;11591;44.792;10.358;2022-12-18T02:03:03;49.28;;;25.08;;
22849;SDS011;11591;44.792;10.358;2022-12-18T02:05:47;50.60;;;25.98;;
22849;SDS011;11591;44.792;10.358;2022-12-18T02:12:10;52.55;;;25.80;;
22849;SDS011;11591;44.792;10.358;2022-12-18T02:14:34;57.65;;;26.17;;
22849;SDS011;11591;44.792;10.358;2022-12-18T02:17:19;57.13;;;26.08;;
22849;SDS011;11591;44.792;10.358;2022-12-18T02:29:12;62.13;;;27.10;;
22849;SDS011;11591;44.792;10.358;2022-12-18T02:31:55;63.38;;;27.83;;
22849;SDS011;11591;44.792;10.358;2022-12-18T02:34:24;65.90;;;28.08;;
22849;SDS011;11591;44.792;10.358;2022-12-18T02:36:54;64.60;;;28.70;;
22849;SDS011;11591;44.792;10.358;2022-12-18T02:39:23;57.53;;;27.65;;
22849;SDS011;11591;44.792;10.358;2022-12-18T02:42:01;67.50;;;28.75;;
22849;SDS011;11591;44.792;10.358;2022-12-18T02:44:33;64.72;;;29.73;;
22849;SDS011;11591;44.792;10.358;2022-12-18T02:47:13;57.80;;;27.55;;
22849;SDS011;11591;44.792;10.358;2022-12-18T02:55:40;60.28;;;27.58;;
22849;SDS011;11591;44.792;10.358;2022-12-18T03:01:30;52.47;;;26.70;;
22849;SDS011;11591;44.792;10.358;2022-12-18T03:04:03;54.22;;;25.92;;
22849;SDS011;11591;44.792;10.358;2022-12-18T03:06:38;56.22;;;25.58;;
22849;SDS011;11591;44.792;10.358;2022-12-18T03:09:13;53.30;;;25.58;;
22849;SDS011;11591;44.792;10.358;2022-12-18T03:11:46;55.67;;;27.48;;
22849;SDS011;11591;44.792;10.358;2022-12-18T03:17:56;57.38;;;26.98;;
22849;SDS011;11591;44.792;10.358;2022-12-18T03:20:35;58.92;;;27.77;;
22849;SDS011;11591;44.792;10.358;2022-12-18T03:23:09;59.83;;;28.45;;
22849;SDS011;11591;44.792;10.358;2022-12-18T03:25:39;58.35;;;27.20;;
22849;SDS011;11591;44.792;10.358;2022-12-18T03:28:09;60.60;;;27.45;;
22849;SDS011;11591;44.792;10.358;2022-12-18T03:30:41;57.15;;;27.70;;
22849;SDS011;11591;44.792;10.358;2022-12-18T03:33:29;54.92;;;25.77;;
22849;SDS011;11591;44.792;10.358;2022-12-18T03:36:17;49.15;;;24.48;;
22849;SDS011;11591;44.792;10.358;2022-12-18T03:38:43;60.97;;;26.77;;
22849;SDS011;11591;44.792;10.358;2022-12-18T03:52:36;55.78;;;25.85;;
22849;SDS011;11591;44.792;10.358;2022-12-18T03:55:08;53.33;;;25.38;;
22849;SDS011;11591;44.792;10.358;2022-12-18T03:57:37;51.38;;;24.67;;
22849;SDS011;11591;44.792;10.358;2022-12-18T04:00:14;49.35;;;23.67;;
22849;SDS011;11591;44.792;10.358;2022-12-18T04:03:00;46.97;;;22.02;;
22849;SDS011;11591;44.792;10.358;2022-12-18T04:05:36;46.80;;;22.83;;
22849;SDS011;11591;44.792;10.358;2022-12-18T04:08:03;48.42;;;23.65;;
22849;SDS011;11591;44.792;10.358;2022-12-18T04:10:33;47.58;;;23.90;;
22849;SDS011;11591;44.792;10.358;2022-12-18T04:13:00;46.50;;;22.35;;
22849;SDS011;11591;44.792;10.358;2022-12-18T04:15:27;47.17;;;22.88;;
22849;SDS011;11591;44.792;10.358;2022-12-18T04:17:54;45.33;;;22.55;;
22849;SDS011;11591;44.792;10.358;2022-12-18T04:20:23;45.55;;;23.10;;
22849;SDS011;11591;44.792;10.358;2022-12-18T04:22:49;42.70;;;21.67;;
22849;SDS011;11591;44.792;10.358;2022-12-18T04:25:18;42.33;;;21.65;;
22849;SDS011;11591;44.792;10.358;2022-12-18T04:27:55;44.83;;;22.65;;
22849;SDS011;11591;44.792;10.358;2022-12-18T04:30:21;44.80;;;22.10;;
22849;SDS011;11591;44.792;10.358;2022-12-18T04:32:48;41.30;;;20.67;;
22849;SDS011;11591;44.792;10.358;2022-12-18T04:35:13;42.67;;;21.85;;
22849;SDS011;11591;44.792;10.358;2022-12-18T04:37:42;45.83;;;21.90;;
22849;SDS011;11591;44.792;10.358;2022-12-18T04:40:08;42.63;;;22.13;;
22849;SDS011;11591;44.792;10.358;2022-12-18T04:42:40;44.10;;;22.30;;
22849;SDS011;11591;44.792;10.358;2022-12-18T04:45:06;44.72;;;22.10;;
22849;SDS011;11591;44.792;10.358;2022-12-18T04:47:32;43.55;;;21.80;;
22849;SDS011;11591;44.792;10.358;2022-12-18T04:49:58;42.72;;;21.83;;
22849;SDS011;11591;44.792;10.358;2022-12-18T04:52:24;44.38;;;21.90;;
22849;SDS011;11591;44.792;10.358;2022-12-18T04:54:50;44.05;;;21.63;;
22849;SDS011;11591;44.792;10.358;2022-12-18T04:57:16;41.08;;;21.92;;
22849;SDS011;11591;44.792;10.358;2022-12-18T04:59:43;42.67;;;21.83;;
22849;SDS011;11591;44.792;10.358;2022-12-18T05:02:09;46.22;;;22.90;;
22849;SDS011;11591;44.792;10.358;2022-12-18T05:04:35;41.75;;;21.35;;
22849;SDS011;11591;44.792;10.358;2022-12-18T05:07:01;40.13;;;21.33;;
22849;SDS011;11591;44.792;10.358;2022-12-18T05:09:26;43.28;;;21.10;;
22849;SDS011;11591;44.792;10.358;2022-12-18T05:11:52;43.47;;;21.63;;
22849;SDS011;11591;44.792;10.358;2022-12-18T05:14:18;42.05;;;22.08;;
22849;SDS011;11591;44.792;10.358;2022-12-18T05:16:44;44.47;;;21.98;;
22849;SDS011;11591;44.792;10.358;2022-12-18T05:19:10;46.03;;;23.02;;
22849;SDS011;11591;44.792;10.358;2022-12-18T05:21:36;50.72;;;24.63;;
22849;SDS011;11591;44.792;10.358;2022-12-18T05:24:02;71.53;;;23.75;;
22849;SDS011;11591;44.792;10.358;2022-12-18T05:26:27;69.07;;;22.38;;
22849;SDS011;11591;44.792;10.358;2022-12-18T05:28:53;65.85;;;26.65;;
22849;SDS011;11591;44.792;10.358;2022-12-18T05:31:19;48.97;;;23.85;;
22849;SDS011;11591;44.792;10.358;2022-12-18T05:33:45;52.70;;;23.90;;
22849;SDS011;11591;44.792;10.358;2022-12-18T05:36:11;81.40;;;22.63;;
22849;SDS011;11591;44.792;10.358;2022-12-18T05:38:37;47.55;;;20.70;;
22849;SDS011;11591;44.792;10.358;2022-12-18T05:41:04;62.83;;;22.77;;
22849;SDS011;11591;44.792;10.358;2022-12-18T05:43:30;94.93;;;22.58;;
22849;SDS011;11591;44.792;10.358;2022-12-18T05:46:02;66.97;;;23.30;;
22849;SDS011;11591;44.792;10.358;2022-12-18T05:48:31;67.97;;;24.65;;
22849;SDS011;11591;44.792;10.358;2022-12-18T05:51:02;53.03;;;22.27;;
22849;SDS011;11591;44.792;10.358;2022-12-18T05:53:32;121.25;;;24.10;;
22849;SDS011;11591;44.792;10.358;2022-12-18T05:55:59;93.88;;;24.63;;
22849;SDS011;11591;44.792;10.358;2022-12-18T05:58:32;51.28;;;22.88;;
22849;SDS011;11591;44.792;10.358;2022-12-18T06:01:05;75.38;;;24.48;;
22849;SDS011;11591;44.792;10.358;2022-12-18T06:03:36;57.90;;;23.75;;
22849;SDS011;11591;44.792;10.358;2022-12-18T06:06:02;73.60;;;24.63;;
22849;SDS011;11591;44.792;10.358;2022-12-18T06:08:28;65.63;;;24.08;;
22849;SDS011;11591;44.792;10.358;2022-12-18T06:10:54;66.82;;;23.95;;
22849;SDS011;11591;44.792;10.358;2022-12-18T06:13:20;54.20;;;23.65;;
22849;SDS011;11591;44.792;10.358;2022-12-18T06:15:46;64.00;;;24.27;;
22849;SDS011;11591;44.792;10.358;2022-12-18T06:18:12;56.75;;;24.33;;
22849;SDS011;11591;44.792;10.358;2022-12-18T06:20:38;63.85;;;24.60;;
22849;SDS011;11591;44.792;10.358;2022-12-18T06:23:06;62.63;;;24.52;;
22849;SDS011;11591;44.792;10.358;2022-12-18T06:25:33;58.70;;;24.63;;
22849;SDS011;11591;44.792;10.358;2022-12-18T06:27:58;62.22;;;25.25;;
22849;SDS011;11591;44.792;10.358;2022-12-18T06:30:24;79.43;;;25.33;;
22849;SDS011;11591;44.792;10.358;2022-12-18T06:32:50;74.32;;;26.17;;
22849;SDS011;11591;44.792;10.358;2022-12-18T06:35:16;77.78;;;26.30;;
22849;SDS011;11591;44.792;10.358;2022-12-18T06:37:42;55.75;;;24.80;;
22849;SDS011;11591;44.792;10.358;2022-12-18T06:40:07;67.53;;;26.45;;
22849;SDS011;11591;44.792;10.358;2022-12-18T06:42:33;102.95;;;27.33;;
22849;SDS011;11591;44.792;10.358;2022-12-18T06:44:59;62.95;;;25.95;;
22849;SDS011;11591;44.792;10.358;2022-12-18T06:47:25;61.63;;;24.45;;
22849;SDS011;11591;44.792;10.358;2022-12-18T06:49:51;61.45;;;24.55;;
22849;SDS011;11591;44.792;10.358;2022-12-18T06:52:16;59.95;;;25.00;;
22849;SDS011;11591;44.792;10.358;2022-12-18T06:54:42;67.40;;;26.67;;
22849;SDS011;11591;44.792;10.358;2022-12-18T06:57:08;78.25;;;25.45;;
22849;SDS011;11591;44.792;10.358;2022-12-18T06:59:34;66.13;;;25.27;;
22849;SDS011;11591;44.792;10.358;2022-12-18T07:02:00;68.95;;;24.02;;
22849;SDS011;11591;44.792;10.358;2022-12-18T07:04:29;67.68;;;25.92;;
22849;SDS011;11591;44.792;10.358;2022-12-18T07:06:55;56.80;;;25.60;;
22849;SDS011;11591;44.792;10.358;2022-12-18T07:09:21;58.25;;;25.50;;
22849;SDS011;11591;44.792;10.358;2022-12-18T07:11:47;65.43;;;25.98;;
22849;SDS011;11591;44.792;10.358;2022-12-18T07:14:12;61.63;;;25.70;;
22849;SDS011;11591;44.792;10.358;2022-12-18T07:16:38;57.08;;;25.08;;
22849;SDS011;11591;44.792;10.358;2022-12-18T07:19:04;52.35;;;23.85;;
22849;SDS011;11591;44.792;10.358;2022-12-18T07:21:30;61.28;;;26.63;;
22849;SDS011;11591;44.792;10.358;2022-12-18T07:23:56;61.17;;;26.70;;
22849;SDS011;11591;44.792;10.358;2022-12-18T07:26:21;58.13;;;25.38;;
22849;SDS011;11591;44.792;10.358;2022-12-18T07:28:48;60.92;;;25.33;;
22849;SDS011;11591;44.792;10.358;2022-12-18T07:31:15;70.65;;;26.23;;
22849;SDS011;11591;44.792;10.358;2022-12-18T07:33:43;58.45;;;26.45;;
22849;SDS011;11591;44.792;10.358;2022-12-18T07:36:10;65.72;;;26.00;;
22849;SDS011;11591;44.792;10.358;2022-12-18T07:38:36;69.65;;;28.15;;
22849;SDS011;11591;44.792;10.358;2022-12-18T07:41:07;68.88;;;28.50;;
22849;SDS011;11591;44.792;10.358;2022-12-18T07:43:35;68.07;;;27.48;;
22849;SDS011;11591;44.792;10.358;2022-12-18T07:46:01;65.03;;;27.15;;
22849;SDS011;11591;44.792;10.358;2022-12-18T07:48:28;71.45;;;26.15;;
22849;SDS011;11591;44.792;10.358;2022-12-18T07:50:57;67.60;;;25.25;;
22849;SDS011;11591;44.792;10.358;2022-12-18T07:53:27;55.75;;;24.13;;
22849;SDS011;11591;44.792;10.358;2022-12-18T07:55:57;62.75;;;25.90;;
22849;SDS011;11591;44.792;10.358;2022-12-18T07:58:24;71.88;;;24.77;;
22849;SDS011;11591;44.792;10.358;2022-12-18T08:00:50;71.38;;;25.27;;
22849;SDS011;11591;44.792;10.358;2022-12-18T08:03:17;64.82;;;26.10;;
22849;SDS011;11591;44.792;10.358;2022-12-18T08:05:43;62.22;;;26.83;;
22849;SDS011;11591;44.792;10.358;2022-12-18T08:08:09;103.55;;;27.20;;
22849;SDS011;11591;44.792;10.358;2022-12-18T08:10:35;76.88;;;25.92;;
22849;SDS011;11591;44.792;10.358;2022-12-18T08:13:02;68.50;;;28.25;;
22849;SDS011;11591;44.792;10.358;2022-12-18T08:15:28;91.88;;;27.83;;
22849;SDS011;11591;44.792;10.358;2022-12-18T08:17:56;76.10;;;27.98;;
22849;SDS011;11591;44.792;10.358;2022-12-18T08:20:22;74.95;;;28.55;;
22849;SDS011;11591;44.792;10.358;2022-12-18T08:22:51;89.97;;;28.77;;
22849;SDS011;11591;44.792;10.358;2022-12-18T08:25:17;71.80;;;28.77;;
22849;SDS011;11591;44.792;10.358;2022-12-18T08:27:42;78.38;;;27.50;;
22849;SDS011;11591;44.792;10.358;2022-12-18T08:30:08;74.60;;;27.05;;
22849;SDS011;11591;44.792;10.358;2022-12-18T08:32:35;76.97;;;27.83;;
22849;SDS011;11591;44.792;10.358;2022-12-18T08:35:01;74.95;;;27.65;;
22849;SDS011;11591;44.792;10.358;2022-12-18T08:37:27;80.20;;;29.70;;
22849;SDS011;11591;44.792;10.358;2022-12-18T08:39:53;77.03;;;28.70;;
22849;SDS011;11591;44.792;10.358;2022-12-18T08:42:18;75.40;;;28.42;;
22849;SDS011;11591;44.792;10.358;2022-12-18T08:45:03;81.22;;;28.75;;
22849;SDS011;11591;44.792;10.358;2022-12-18T08:47:29;81.68;;;28.85;;
22849;SDS011;11591;44.792;10.358;2022-12-18T08:49:55;87.05;;;27.27;;
22849;SDS011;11591;44.792;10.358;2022-12-18T08:52:21;67.30;;;25.65;;
22849;SDS011;11591;44.792;10.358;2022-12-18T08:54:46;69.72;;;26.60;;
22849;SDS011;11591;44.792;10.358;2022-12-18T08:57:12;72.47;;;25.95;;
22849;SDS011;11591;44.792;10.358;2022-12-18T08:59:38;78.93;;;28.40;;
22849;SDS011;11591;44.792;10.358;2022-12-18T09:02:04;76.78;;;27.75;;
22849;SDS011;11591;44.792;10.358;2022-12-18T09:04:29;84.57;;;27.42;;
22849;SDS011;11591;44.792;10.358;2022-12-18T09:06:55;73.95;;;27.60;;
22849;SDS011;11591;44.792;10.358;2022-12-18T09:09:21;65.93;;;25.83;;
22849;SDS011;11591;44.792;10.358;2022-12-18T09:11:47;66.70;;;25.40;;
22849;SDS011;11591;44.792;10.358;2022-12-18T09:14:13;63.13;;;25.65;;
22849;SDS011;11591;44.792;10.358;2022-12-18T09:16:38;70.15;;;26.88;;
22849;SDS011;11591;44.792;10.358;2022-12-18T09:19:04;69.57;;;26.23;;
22849;SDS011;11591;44.792;10.358;2022-12-18T09:21:32;68.10;;;26.83;;
22849;SDS011;11591;44.792;10.358;2022-12-18T09:23:59;69.43;;;26.17;;
22849;SDS011;11591;44.792;10.358;2022-12-18T09:26:26;63.55;;;25.55;;
22849;SDS011;11591;44.792;10.358;2022-12-18T09:28:52;53.70;;;22.40;;
22849;SDS011;11591;44.792;10.358;2022-12-18T09:31:19;62.10;;;24.42;;
22849;SDS011;11591;44.792;10.358;2022-12-18T09:33:46;58.20;;;22.90;;
22849;SDS011;11591;44.792;10.358;2022-12-18T09:36:14;55.47;;;23.40;;
22849;SDS011;11591;44.792;10.358;2022-12-18T09:38:41;56.63;;;22.88;;
22849;SDS011;11591;44.792;10.358;2022-12-18T09:41:19;61.53;;;22.80;;
22849;SDS011;11591;44.792;10.358;2022-12-18T09:44:03;57.42;;;21.92;;
22849;SDS011;11591;44.792;10.358;2022-12-18T09:46:37;52.67;;;20.88;;
22849;SDS011;11591;44.792;10.358;2022-12-18T09:49:11;49.65;;;21.10;;
22849;SDS011;11591;44.792;10.358;2022-12-18T09:51:50;54.78;;;21.65;;
22849;SDS011;11591;44.792;10.358;2022-12-18T09:54:23;57.58;;;23.15;;
22849;SDS011;11591;44.792;10.358;2022-12-18T09:56:53;53.92;;;23.15;;
22849;SDS011;11591;44.792;10.358;2022-12-18T09:59:26;52.78;;;21.65;;
22849;SDS011;11591;44.792;10.358;2022-12-18T10:02:10;56.45;;;23.10;;
22849;SDS011;11591;44.792;10.358;2022-12-18T10:05:09;58.00;;;21.65;;
22849;SDS011;11591;44.792;10.358;2022-12-18T10:10:49;55.83;;;22.52;;
22849;SDS011;11591;44.792;10.358;2022-12-18T10:13:29;58.72;;;22.20;;
22849;SDS011;11591;44.792;10.358;2022-12-18T10:16:03;54.03;;;21.48;;
22849;SDS011;11591;44.792;10.358;2022-12-18T10:18:38;53.95;;;21.42;;
22849;SDS011;11591;44.792;10.358;2022-12-18T10:21:32;51.20;;;22.15;;
22849;SDS011;11591;44.792;10.358;2022-12-18T10:26:42;49.75;;;21.13;;
22849;SDS011;11591;44.792;10.358;2022-12-18T10:29:12;51.30;;;21.45;;
22849;SDS011;11591;44.792;10.358;2022-12-18T10:31:39;51.05;;;21.58;;
22849;SDS011;11591;44.792;10.358;2022-12-18T10:34:11;53.50;;;21.30;;
22849;SDS011;11591;44.792;10.358;2022-12-18T10:36:37;55.40;;;21.27;;
22849;SDS011;11591;44.792;10.358;2022-12-18T10:39:18;53.00;;;22.90;;
22849;SDS011;11591;44.792;10.358;2022-12-18T10:41:45;48.83;;;20.80;;
22849;SDS011;11591;44.792;10.358;2022-12-18T10:46:55;53.05;;;22.15;;
22849;SDS011;11591;44.792;10.358;2022-12-18T10:49:31;54.55;;;22.83;;
22849;SDS011;11591;44.792;10.358;2022-12-18T10:54:59;48.50;;;21.42;;
22849;SDS011;11591;44.792;10.358;2022-12-18T10:57:29;55.03;;;23.55;;
22849;SDS011;11591;44.792;10.358;2022-12-18T10:59:57;53.75;;;23.83;;
22849;SDS011;11591;44.792;10.358;2022-12-18T11:02:34;57.05;;;24.40;;
22849;SDS011;11591;44.792;10.358;2022-12-18T11:05:04;57.47;;;24.27;;
22849;SDS011;11591;44.792;10.358;2022-12-18T11:07:50;52.83;;;23.08;;
22849;SDS011;11591;44.792;10.358;2022-12-18T11:10:17;52.38;;;21.92;;
22849;SDS011;11591;44.792;10.358;2022-12-18T11:12:44;54.28;;;22.83;;
22849;SDS011;11591;44.792;10.358;2022-12-18T11:15:18;48.97;;;21.17;;
22849;SDS011;11591;44.792;10.358;2022-12-18T11:17:47;52.25;;;21.63;;
22849;SDS011;11591;44.792;10.358;2022-12-18T11:20:33;54.47;;;22.15;;
22849;SDS011;11591;44.792;10.358;2022-12-18T11:23:01;48.13;;;21.58;;
22849;SDS011;11591;44.792;10.358;2022-12-18T11:25:29;50.83;;;22.88;;
22849;SDS011;11591;44.792;10.358;2022-12-18T11:28:01;55.05;;;23.15;;
22849;SDS011;11591;44.792;10.358;2022-12-18T11:30:35;59.83;;;23.15;;
22849;SDS011;11591;44.792;10.358;2022-12-18T11:33:05;53.75;;;22.65;;
22849;SDS011;11591;44.792;10.358;2022-12-18T11:35:38;50.20;;;22.05;;
22849;SDS011;11591;44.792;10.358;2022-12-18T11:38:14;50.78;;;22.60;;
22849;SDS011;11591;44.792;10.358;2022-12-18T11:40:43;53.47;;;22.50;;
22849;SDS011;11591;44.792;10.358;2022-12-18T11:43:35;53.00;;;22.85;;
22849;SDS011;11591;44.792;10.358;2022-12-18T11:46:11;50.85;;;21.77;;
22849;SDS011;11591;44.792;10.358;2022-12-18T11:51:33;56.80;;;22.35;;
22849;SDS011;11591;44.792;10.358;2022-12-18T11:54:09;55.97;;;23.30;;
22849;SDS011;11591;44.792;10.358;2022-12-18T11:56:52;51.25;;;22.27;;
22849;SDS011;11591;44.792;10.358;2022-12-18T12:01:53;55.00;;;23.05;;
22849;SDS011;11591;44.792;10.358;2022-12-18T12:04:48;48.95;;;21.67;;
22849;SDS011;11591;44.792;10.358;2022-12-18T12:13:03;47.60;;;20.83;;
22849;SDS011;11591;44.792;10.358;2022-12-18T12:15:58;52.88;;;21.50;;
22849;SDS011;11591;44.792;10.358;2022-12-18T12:21:41;53.72;;;21.88;;
22849;SDS011;11591;44.792;10.358;2022-12-18T12:40:05;54.92;;;22.70;;
22849;SDS011;11591;44.792;10.358;2022-12-18T12:45:33;48.40;;;21.75;;
22849;SDS011;11591;44.792;10.358;2022-12-18T12:48:55;51.38;;;22.35;;
22849;SDS011;11591;44.792;10.358;2022-12-18T12:51:17;56.60;;;23.88;;
22849;SDS011;11591;44.792;10.358;2022-12-18T12:54:01;49.28;;;22.15;;
22849;SDS011;11591;44.792;10.358;2022-12-18T12:56:42;48.83;;;21.60;;
22849;SDS011;11591;44.792;10.358;2022-12-18T13:08:09;46.03;;;21.35;;
22849;SDS011;11591;44.792;10.358;2022-12-18T13:10:37;47.05;;;21.55;;
22849;SDS011;11591;44.792;10.358;2022-12-18T13:13:08;83.00;;;30.90;;
22849;SDS011;11591;44.792;10.358;2022-12-18T13:15:47;49.60;;;22.25;;
22849;SDS011;11591;44.792;10.358;2022-12-18T13:18:28;52.72;;;22.65;;
22849;SDS011;11591;44.792;10.358;2022-12-18T13:25:52;41.50;;;21.17;;
22849;SDS011;11591;44.792;10.358;2022-12-18T13:31:01;48.50;;;22.17;;
22849;SDS011;11591;44.792;10.358;2022-12-18T13:36:13;47.70;;;21.25;;
22849;SDS011;11591;44.792;10.358;2022-12-18T13:38:39;44.15;;;20.95;;
22849;SDS011;11591;44.792;10.358;2022-12-18T13:41:25;43.85;;;21.13;;
22849;SDS011;11591;44.792;10.358;2022-12-18T13:43:54;42.17;;;20.25;;
22849;SDS011;11591;44.792;10.358;2022-12-18T13:51:42;42.03;;;21.48;;
22849;SDS011;11591;44.792;10.358;2022-12-18T13:57:02;43.78;;;21.02;;
22849;SDS011;11591;44.792;10.358;2022-12-18T13:59:36;40.70;;;21.50;;
22849;SDS011;11591;44.792;10.358;2022-12-18T14:02:14;41.08;;;20.92;;
22849;SDS011;11591;44.792;10.358;2022-12-18T14:04:44;45.92;;;21.17;;
22849;SDS011;11591;44.792;10.358;2022-12-18T14:07:12;41.97;;;20.65;;
22849;SDS011;11591;44.792;10.358;2022-12-18T14:09:43;43.38;;;20.85;;
22849;SDS011;11591;44.792;10.358;2022-12-18T14:12:16;38.63;;;21.42;;
22849;SDS011;11591;44.792;10.358;2022-12-18T14:15:30;41.90;;;21.55;;
22849;SDS011;11591;44.792;10.358;2022-12-18T14:18:22;35.88;;;19.10;;
22849;SDS011;11591;44.792;10.358;2022-12-18T14:21:04;41.35;;;21.60;;
22849;SDS011;11591;44.792;10.358;2022-12-18T14:23:35;41.20;;;20.45;;
22849;SDS011;11591;44.792;10.358;2022-12-18T14:28:58;39.20;;;20.55;;
22849;SDS011;11591;44.792;10.358;2022-12-18T14:31:30;39.33;;;20.65;;
22849;SDS011;11591;44.792;10.358;2022-12-18T14:33:56;38.38;;;20.40;;
22849;SDS011;11591;44.792;10.358;2022-12-18T14:36:24;41.30;;;20.35;;
22849;SDS011;11591;44.792;10.358;2022-12-18T14:38:55;44.47;;;23.40;;
22849;SDS011;11591;44.792;10.358;2022-12-18T14:41:22;46.13;;;22.48;;
22849;SDS011;11591;44.792;10.358;2022-12-18T14:43:52;49.33;;;26.75;;
22849;SDS011;11591;44.792;10.358;2022-12-18T14:48:53;43.75;;;22.38;;
22849;SDS011;11591;44.792;10.358;2022-12-18T14:51:21;42.95;;;20.23;;
22849;SDS011;11591;44.792;10.358;2022-12-18T14:53:49;45.42;;;23.10;;
22849;SDS011;11591;44.792;10.358;2022-12-18T14:58:55;44.38;;;23.25;;
22849;SDS011;11591;44.792;10.358;2022-12-18T15:01:28;55.05;;;25.85;;
22849;SDS011;11591;44.792;10.358;2022-12-18T15:03:56;42.25;;;21.20;;
22849;SDS011;11591;44.792;10.358;2022-12-18T15:06:30;42.55;;;21.05;;
22849;SDS011;11591;44.792;10.358;2022-12-18T15:09:03;42.22;;;22.08;;
22849;SDS011;11591;44.792;10.358;2022-12-18T15:11:45;42.55;;;21.85;;
22849;SDS011;11591;44.792;10.358;2022-12-18T15:14:21;44.75;;;22.33;;
22849;SDS011;11591;44.792;10.358;2022-12-18T15:16:52;42.58;;;21.85;;
22849;SDS011;11591;44.792;10.358;2022-12-18T15:19:20;48.60;;;22.75;;
22849;SDS011;11591;44.792;10.358;2022-12-18T15:21:50;48.17;;;20.98;;
22849;SDS011;11591;44.792;10.358;2022-12-18T15:24:20;47.05;;;22.70;;
22849;SDS011;11591;44.792;10.358;2022-12-18T15:26:51;52.70;;;23.58;;
22849;SDS011;11591;44.792;10.358;2022-12-18T15:29:19;44.95;;;21.90;;
22849;SDS011;11591;44.792;10.358;2022-12-18T15:32:10;56.97;;;24.95;;
22849;SDS011;11591;44.792;10.358;2022-12-18T15:34:44;46.67;;;23.60;;
22849;SDS011;11591;44.792;10.358;2022-12-18T15:37:10;57.13;;;25.80;;
22849;SDS011;11591;44.792;10.358;2022-12-18T15:39:36;54.08;;;25.00;;
22849;SDS011;11591;44.792;10.358;2022-12-18T15:42:02;83.47;;;33.35;;
22849;SDS011;11591;44.792;10.358;2022-12-18T15:44:46;66.35;;;28.63;;
22849;SDS011;11591;44.792;10.358;2022-12-18T15:47:12;56.33;;;25.73;;
22849;SDS011;11591;44.792;10.358;2022-12-18T15:49:38;52.42;;;25.75;;
22849;SDS011;11591;44.792;10.358;2022-12-18T15:52:04;67.68;;;30.98;;
22849;SDS011;11591;44.792;10.358;2022-12-18T15:54:30;55.08;;;25.02;;
22849;SDS011;11591;44.792;10.358;2022-12-18T15:57:15;57.95;;;25.38;;
22849;SDS011;11591;44.792;10.358;2022-12-18T15:59:54;58.55;;;24.83;;
22849;SDS011;11591;44.792;10.358;2022-12-18T16:02:23;59.80;;;26.65;;
22849;SDS011;11591;44.792;10.358;2022-12-18T16:04:50;58.45;;;26.63;;
22849;SDS011;11591;44.792;10.358;2022-12-18T16:07:17;54.35;;;24.95;;
22849;SDS011;11591;44.792;10.358;2022-12-18T16:09:43;54.85;;;25.33;;
22849;SDS011;11591;44.792;10.358;2022-12-18T16:12:19;58.17;;;25.58;;
22849;SDS011;11591;44.792;10.358;2022-12-18T16:14:47;65.00;;;27.52;;
22849;SDS011;11591;44.792;10.358;2022-12-18T16:17:13;57.72;;;24.88;;
22849;SDS011;11591;44.792;10.358;2022-12-18T16:19:40;66.25;;;27.38;;
22849;SDS011;11591;44.792;10.358;2022-12-18T16:22:08;65.93;;;26.77;;
22849;SDS011;11591;44.792;10.358;2022-12-18T16:24:49;62.33;;;27.20;;
22849;SDS011;11591;44.792;10.358;2022-12-18T16:27:16;69.07;;;28.77;;
22849;SDS011;11591;44.792;10.358;2022-12-18T16:29:41;62.33;;;27.80;;